Time;durP1;ratioP1;P1;durP2;ratioP2;P2;SDS_P1;SDS_P2;PMS_P1;PMS_P2;Temp;Humidity;BMP_temperature;BMP_pressure;BME280_temperature;BME280_humidity;BME280_pressure;Samples;Min_cycle;Max_cycle;Signal;HPM_P1;HPM_P2
2024/01/25 00:00:46;;;;;;;16.77;3.03;;;10.80;95.60;;;;;;5005657;28;20044;-76
2024/01/25 00:03:11;;;;;;;19.80;3.45;;;10.70;95.70;;;;;;5023743;28;20304;-74
2024/01/25 00:05:38;;;;;;;26.38;3.65;;;10.80;95.70;;;;;;5022328;28;20203;-76
2024/01/25 00:08:09;;;;;;;18.60;3.08;;;10.80;95.80;;;;;;4989178;28;20026;-75
2024/01/25 00:10:41;;;;;;;18.02;2.80;;;10.90;95.80;;;;;;5022770;28;20022;-77
2024/01/25 00:13:10;;;;;;;15.10;2.75;;;10.90;95.80;;;;;;5022627;28;20041;-75
2024/01/25 00:15:38;;;;;;;;;;;10.90;95.80;;;;;;5023543;28;20056;-75
2024/01/25 00:18:09;;;;;;;21.45;2.80;;;10.90;95.90;;;;;;5023358;28;19943;-75
2024/01/25 00:20:44;;;;;;;15.75;3.03;;;10.80;96.00;;;;;;5022745;28;20045;-77
2024/01/25 00:23:13;;;;;;;14.60;3.10;;;10.80;96.00;;;;;;5004474;28;20057;-75
2024/01/25 00:25:38;;;;;;;17.52;2.97;;;10.80;96.20;;;;;;5022706;28;20041;-77
2024/01/25 00:28:04;;;;;;;14.85;2.72;;;10.80;96.30;;;;;;5022900;28;20032;-77
2024/01/25 00:30:30;;;;;;;19.05;4.30;;;10.80;96.40;;;;;;5003682;28;20057;-78
2024/01/25 00:32:59;;;;;;;19.80;2.92;;;10.80;96.40;;;;;;5022912;28;20053;-74
2024/01/25 00:35:34;;;;;;;20.05;3.22;;;10.80;96.50;;;;;;5022872;28;20042;-76
2024/01/25 00:38:03;;;;;;;17.27;3.78;;;10.90;96.60;;;;;;5005887;28;20039;-75
2024/01/25 00:40:54;;;;;;;19.23;3.10;;;10.90;96.60;;;;;;5009230;28;20108;-76
2024/01/25 00:43:20;;;;;;;20.55;5.00;;;10.90;96.90;;;;;;5003078;28;20049;-75
2024/01/25 00:45:49;;;;;;;18.75;3.25;;;10.80;97.00;;;;;;4985571;28;20321;-75
2024/01/25 00:48:15;;;;;;;20.15;3.50;;;10.70;97.10;;;;;;5003154;28;20060;-75
2024/01/25 00:50:44;;;;;;;17.58;2.60;;;10.70;97.20;;;;;;5000617;28;20034;-76
2024/01/25 00:53:10;;;;;;;21.30;3.25;;;10.80;97.30;;;;;;4969649;28;20076;-75
2024/01/25 00:55:36;;;;;;;23.92;3.55;;;10.80;97.30;;;;;;5002648;28;20026;-76
2024/01/25 00:58:08;;;;;;;16.02;2.97;;;10.80;97.40;;;;;;4985831;28;20038;-75
2024/01/25 01:00:34;;;;;;;18.52;3.65;;;10.90;97.50;;;;;;4968679;28;20062;-73
2024/01/25 01:03:04;;;;;;;21.48;3.53;;;10.90;97.40;;;;;;5003210;28;20022;-75
2024/01/25 01:05:30;;;;;;;22.83;4.38;;;10.90;97.40;;;;;;5002541;28;20264;-74
2024/01/25 01:07:59;;;;;;;14.68;2.58;;;10.90;97.40;;;;;;5002910;28;20044;-76
2024/01/25 01:10:28;;;;;;;14.50;3.40;;;10.90;97.60;;;;;;5002930;28;20363;-76
2024/01/25 01:12:57;;;;;;;18.50;3.20;;;10.80;97.70;;;;;;4969939;28;20030;-75
2024/01/25 01:15:23;;;;;;;22.63;2.78;;;10.80;97.70;;;;;;5002926;28;20030;-76
2024/01/25 01:17:54;;;;;;;14.82;2.65;;;10.90;97.80;;;;;;4984334;28;20322;-75
2024/01/25 01:20:20;;;;;;;23.38;3.20;;;10.90;97.60;;;;;;5004813;28;20061;-74
2024/01/25 01:22:49;;;;;;;22.00;4.65;;;10.90;97.70;;;;;;4988774;28;20285;-75
2024/01/25 01:25:14;;;;;;;21.33;3.00;;;10.80;97.80;;;;;;5006773;28;20010;-75
2024/01/25 01:27:40;;;;;;;22.15;3.20;;;10.80;97.70;;;;;;4988573;28;20037;-75
2024/01/25 01:30:08;;;;;;;21.42;3.70;;;10.90;97.80;;;;;;4989124;28;20106;-75
2024/01/25 01:32:33;;;;;;;14.95;3.22;;;10.90;97.60;;;;;;5006040;28;20061;-74
2024/01/25 01:35:03;;;;;;;12.15;2.90;;;10.90;97.50;;;;;;4989151;28;20037;-75
2024/01/25 01:37:29;;;;;;;15.98;2.80;;;10.90;97.50;;;;;;4986485;28;20321;-75
2024/01/25 01:40:10;;;;;;;16.25;2.95;;;10.90;97.40;;;;;;5006092;28;20077;-74
2024/01/25 01:42:36;;;;;;;19.77;3.38;;;10.90;97.30;;;;;;4972399;28;20030;-74
2024/01/25 01:45:01;;;;;;;16.67;3.65;;;10.90;97.20;;;;;;5006303;28;20045;-73
2024/01/25 01:47:28;;;;;;;15.00;2.80;;;11.00;97.30;;;;;;5006342;28;20018;-74
2024/01/25 01:49:59;;;;;;;19.63;3.08;;;10.90;97.40;;;;;;4972886;28;20178;-75
2024/01/25 01:52:25;;;;;;;20.25;3.05;;;11.00;97.40;;;;;;5006331;28;20106;-74
2024/01/25 01:54:54;;;;;;;16.10;2.75;;;10.90;97.40;;;;;;5004997;28;20237;-74
2024/01/25 01:57:23;;;;;;;15.63;2.75;;;10.90;97.40;;;;;;5005659;28;20363;-77
2024/01/25 01:59:52;;;;;;;17.65;3.25;;;10.90;97.30;;;;;;5005806;28;20299;-74
2024/01/25 02:02:23;;;;;;;22.98;3.03;;;10.90;97.00;;;;;;4972901;28;20018;-73
2024/01/25 02:04:52;;;;;;;16.02;2.78;;;10.90;97.20;;;;;;5005382;28;20244;-74
2024/01/25 02:07:24;;;;;;;15.45;3.38;;;10.90;97.20;;;;;;4972715;28;20026;-74
2024/01/25 02:09:50;;;;;;;17.40;2.97;;;10.90;97.20;;;;;;4972350;28;20022;-74
2024/01/25 02:12:17;;;;;;;20.15;3.10;;;10.80;97.20;;;;;;4969046;28;20045;-75
2024/01/25 02:14:48;;;;;;;13.13;2.42;;;10.80;97.20;;;;;;4971909;28;20261;-76
2024/01/25 02:17:14;;;;;;;18.02;2.80;;;10.80;96.90;;;;;;4972679;28;20186;-75
2024/01/25 02:19:40;;;;;;;11.60;2.67;;;10.80;96.80;;;;;;5005371;28;20057;-73
2024/01/25 02:22:06;;;;;;;16.08;2.63;;;10.80;96.80;;;;;;4988514;28;20024;-76
2024/01/25 02:24:38;;;;;;;14.65;3.10;;;10.80;96.70;;;;;;5005054;28;20018;-74
2024/01/25 02:27:05;;;;;;;16.67;3.38;;;10.80;96.60;;;;;;4972120;28;20105;-75
2024/01/25 02:29:33;;;;;;;17.75;2.58;;;10.80;96.50;;;;;;4967703;28;20146;-75
2024/01/25 02:31:59;;;;;;;;;;;10.70;96.20;;;;;;4985075;28;20035;-74
2024/01/25 02:34:24;;;;;;;15.25;2.70;;;10.70;96.10;;;;;;4984705;28;19973;-75
2024/01/25 02:36:53;;;;;;;15.43;2.90;;;10.70;95.70;;;;;;4984408;28;20372;-75
2024/01/25 02:39:21;;;;;;;;;;;10.70;96.10;;;;;;4969321;28;20030;-74
2024/01/25 02:41:47;;;;;;;15.82;2.55;;;10.70;96.20;;;;;;4985517;28;20129;-74
2024/01/25 02:44:13;;;;;;;14.00;2.72;;;10.70;96.30;;;;;;4985661;28;20050;-74
2024/01/25 02:46:39;;;;;;;18.80;2.90;;;10.70;96.50;;;;;;5002928;28;20038;-73
2024/01/25 02:49:08;;;;;;;13.45;2.00;;;10.70;96.60;;;;;;5005210;28;20354;-75
2024/01/25 02:51:33;;;;;;;14.32;3.08;;;10.70;96.30;;;;;;5004767;28;20022;-75
2024/01/25 02:53:59;;;;;;;15.23;3.30;;;10.70;96.50;;;;;;5005316;28;20030;-76
2024/01/25 02:56:26;;;;;;;13.55;2.70;;;10.60;96.70;;;;;;4971929;28;20109;-74
2024/01/25 02:58:52;;;;;;;12.02;2.25;;;10.70;96.70;;;;;;4987318;28;20030;-76
2024/01/25 03:01:17;;;;;;;13.25;2.05;;;10.60;96.80;;;;;;5005072;28;20257;-75
2024/01/25 03:03:43;;;;;;;14.68;2.58;;;10.60;96.90;;;;;;5003648;28;20022;-75
2024/01/25 03:06:11;;;;;;;18.38;2.63;;;10.50;96.90;;;;;;4971515;28;20030;-74
2024/01/25 03:08:37;;;;;;;16.48;2.50;;;10.60;97.00;;;;;;5004673;28;20030;-75
2024/01/25 03:11:06;;;;;;;13.40;2.90;;;10.50;97.10;;;;;;4987933;28;20133;-74
2024/01/25 03:13:32;;;;;;;15.18;2.13;;;10.50;97.20;;;;;;5004582;28;20033;-75
2024/01/25 03:15:58;;;;;;;14.80;2.47;;;10.50;97.30;;;;;;4987214;28;20038;-75
2024/01/25 03:18:23;;;;;;;24.17;4.05;;;10.50;97.30;;;;;;4987359;28;20283;-75
2024/01/25 03:20:50;;;;;;;14.05;2.45;;;10.50;97.40;;;;;;5003277;28;20030;-75
2024/01/25 03:23:19;;;;;;;12.90;2.90;;;10.50;97.40;;;;;;5004416;28;20076;-74
2024/01/25 03:25:45;;;;;;;15.55;2.85;;;10.40;97.60;;;;;;5003890;28;20057;-73
2024/01/25 03:28:13;;;;;;;16.45;3.22;;;10.30;97.70;;;;;;5004677;28;20076;-74
2024/01/25 03:30:42;;;;;;;16.63;3.63;;;10.30;97.80;;;;;;5004271;28;20057;-73
2024/01/25 03:33:14;;;;;;;17.48;2.78;;;10.40;97.70;;;;;;4971304;28;20054;-74
2024/01/25 03:35:42;;;;;;;20.10;3.88;;;10.40;97.70;;;;;;5003939;28;20237;-76
2024/01/25 03:38:08;;;;;;;13.80;2.65;;;10.30;97.70;;;;;;4986804;28;20098;-75
2024/01/25 03:40:37;;;;;;;19.00;3.42;;;10.30;97.80;;;;;;5011225;28;20205;-74
2024/01/25 03:43:05;;;;;;;;;;;10.20;97.80;;;;;;5023489;28;20037;-75
2024/01/25 03:45:32;;;;;;;15.18;2.90;;;10.30;97.80;;;;;;5023357;28;20127;-77
2024/01/25 03:47:58;;;;;;;18.05;3.00;;;10.20;97.80;;;;;;5006419;28;20347;-77
2024/01/25 03:50:24;;;;;;;12.63;2.47;;;10.30;97.80;;;;;;5023956;28;20037;-75
2024/01/25 03:52:50;;;;;;;18.15;3.08;;;10.30;97.80;;;;;;5005661;28;20030;-75
2024/01/25 03:55:25;;;;;;;15.00;2.58;;;10.30;97.90;;;;;;5023708;28;20185;-75
2024/01/25 03:57:53;;;;;;;13.75;2.88;;;10.20;98.00;;;;;;5023235;28;20078;-75
2024/01/25 04:00:25;;;;;;;14.43;2.38;;;10.20;98.10;;;;;;5023586;28;20244;-76
2024/01/25 04:02:54;;;;;;;20.17;4.07;;;10.20;98.10;;;;;;5022510;28;20302;-74
2024/01/25 04:05:22;;;;;;;15.50;2.80;;;10.20;98.20;;;;;;5023328;28;20033;-74
2024/01/25 04:07:48;;;;;;;16.05;3.10;;;10.20;98.20;;;;;;5022839;28;20347;-76
2024/01/25 04:10:14;;;;;;;18.17;4.05;;;10.20;98.30;;;;;;5023182;28;20037;-72
2024/01/25 04:12:39;;;;;;;20.65;3.17;;;10.10;98.40;;;;;;5022646;28;20097;-74
2024/01/25 04:15:11;;;;;;;15.48;2.90;;;10.10;98.50;;;;;;5023305;28;20033;-75
2024/01/25 04:17:40;;;;;;;19.05;3.35;;;10.20;98.30;;;;;;5022830;28;20040;-74
2024/01/25 04:20:06;;;;;;;18.50;3.10;;;10.10;98.60;;;;;;5023449;28;20033;-75
2024/01/25 04:22:32;;;;;;;19.33;2.75;;;10.10;98.30;;;;;;5022767;28;20026;-76
2024/01/25 04:24:57;;;;;;;14.15;3.88;;;10.10;98.20;;;;;;5023288;28;20036;-73
2024/01/25 04:27:23;;;;;;;14.50;2.75;;;10.10;98.20;;;;;;5023135;28;20033;-74
2024/01/25 04:29:49;;;;;;;18.38;3.00;;;10.10;98.40;;;;;;5022424;28;20030;-73
2024/01/25 04:32:14;;;;;;;16.63;2.78;;;10.00;98.50;;;;;;5022147;28;20034;-74
2024/01/25 04:34:40;;;;;;;16.25;2.72;;;10.00;98.60;;;;;;5021612;28;20081;-76
2024/01/25 04:37:06;;;;;;;15.27;2.95;;;10.00;98.60;;;;;;5021159;28;20236;-75
2024/01/25 04:39:31;;;;;;;15.95;3.33;;;10.00;98.70;;;;;;5022549;28;20034;-74
2024/01/25 04:42:00;;;;;;;18.27;3.72;;;9.90;98.80;;;;;;5005012;28;20050;-75
2024/01/25 04:44:26;;;;;;;17.60;3.65;;;9.90;98.80;;;;;;4969858;28;20030;-74
2024/01/25 04:46:54;;;;;;;18.90;2.90;;;9.90;98.80;;;;;;4969587;28;20213;-74
2024/01/25 04:49:22;;;;;;;16.35;2.58;;;9.90;98.40;;;;;;5002153;28;20035;-74
2024/01/25 04:51:51;;;;;;;22.63;3.97;;;9.90;98.40;;;;;;5002002;28;20300;-76
2024/01/25 04:54:17;;;;;;;17.42;2.45;;;9.90;98.50;;;;;;5003018;28;20038;-74
2024/01/25 04:56:43;;;;;;;16.58;3.55;;;10.00;98.20;;;;;;4985504;28;20030;-75
2024/01/25 04:59:09;;;;;;;17.50;2.88;;;10.00;98.10;;;;;;5003177;28;20046;-75
2024/01/25 05:01:35;;;;;;;16.25;2.97;;;9.90;97.80;;;;;;4985306;28;20050;-75
2024/01/25 05:04:00;;;;;;;19.23;2.88;;;9.90;97.80;;;;;;5003143;28;20045;-74
2024/01/25 05:06:26;;;;;;;15.05;3.25;;;9.90;97.60;;;;;;4985831;28;20094;-75
2024/01/25 05:08:52;;;;;;;15.18;2.65;;;9.90;97.70;;;;;;5002617;28;20034;-74
2024/01/25 05:11:17;;;;;;;23.13;3.65;;;9.90;97.60;;;;;;5002543;28;20109;-75
2024/01/25 05:13:43;;;;;;;15.23;2.67;;;9.70;97.70;;;;;;5002323;28;20018;-76
2024/01/25 05:16:12;;;;;;;15.45;2.50;;;9.70;97.60;;;;;;5002854;28;20053;-74
2024/01/25 05:18:37;;;;;;;18.08;3.65;;;9.60;97.70;;;;;;4985062;28;20030;-76
2024/01/25 05:21:03;;;;;;;18.02;3.03;;;9.50;97.60;;;;;;4985294;28;20073;-77
2024/01/25 05:23:32;;;;;;;14.48;3.08;;;9.40;97.80;;;;;;5001897;28;20045;-74
2024/01/25 05:25:57;;;;;;;15.65;3.13;;;9.40;98.00;;;;;;5003175;28;20041;-75
2024/01/25 05:28:24;;;;;;;16.63;3.13;;;9.40;97.90;;;;;;5003246;28;20249;-74
2024/01/25 05:30:50;;;;;;;17.45;2.95;;;9.20;98.00;;;;;;5001683;28;20035;-75
2024/01/25 05:33:16;;;;;;;22.20;4.22;;;9.20;98.10;;;;;;5002815;28;20027;-74
2024/01/25 05:35:41;;;;;;;19.23;3.35;;;9.20;98.10;;;;;;5002691;28;20173;-75
2024/01/25 05:38:07;;;;;;;13.50;2.97;;;9.10;98.20;;;;;;5003010;28;20034;-77
2024/01/25 05:40:37;;;;;;;18.35;3.03;;;9.00;98.40;;;;;;5001676;28;20050;-78
2024/01/25 05:43:03;;;;;;;15.00;2.80;;;8.80;98.60;;;;;;5002654;28;20120;-76
2024/01/25 05:45:29;;;;;;;19.67;2.75;;;8.80;98.60;;;;;;5002203;28;20317;-76
2024/01/25 05:47:54;;;;;;;17.55;3.10;;;8.80;98.60;;;;;;5003112;28;20030;-77
2024/01/25 05:50:20;;;;;;;19.23;3.30;;;8.80;98.40;;;;;;4969227;28;20101;-77
2024/01/25 05:52:46;;;;;;;14.20;2.88;;;8.80;98.30;;;;;;4969227;28;20327;-77
2024/01/25 05:55:14;;;;;;;20.15;3.03;;;8.80;98.30;;;;;;5003109;28;20054;-78
2024/01/25 05:57:46;;;;;;;24.80;4.90;;;8.70;98.30;;;;;;5001922;28;20018;-74
2024/01/25 06:00:21;;;;;;;21.58;3.45;;;8.70;98.30;;;;;;4969875;28;20034;-77
2024/01/25 06:02:59;;;;;;;19.25;3.58;;;8.70;98.30;;;;;;4984696;28;20129;-76
2024/01/25 06:05:28;;;;;;;18.40;2.65;;;8.60;98.50;;;;;;5003340;28;20050;-76
2024/01/25 06:07:53;;;;;;;;;;;8.60;98.50;;;;;;5006563;28;20026;-75
2024/01/25 06:10:19;;;;;;;15.98;2.90;;;8.50;98.40;;;;;;4988811;28;19943;-76
2024/01/25 06:12:48;;;;;;;19.23;3.70;;;8.40;98.80;;;;;;5005616;28;20332;-75
2024/01/25 06:15:22;;;;;;;23.55;3.28;;;8.40;98.90;;;;;;5006181;28;20026;-76
2024/01/25 06:17:54;;;;;;;17.07;3.03;;;8.30;99.30;;;;;;4971019;28;20304;-78
2024/01/25 06:20:26;;;;;;;17.58;2.97;;;8.40;99.50;;;;;;4988221;28;20682;-77
2024/01/25 06:23:17;;;;;;;21.67;3.35;;;8.40;99.50;;;;;;5005365;28;20034;-80
2024/01/25 06:30:02;;;;;;;;;;;8.30;99.90;;;;;;5006441;28;20296;-76
2024/01/25 06:32:28;;;;;;;18.75;3.55;;;8.20;99.90;;;;;;5005140;28;19906;-77
2024/01/25 06:38:52;;;;;;;20.92;3.13;;;8.10;99.90;;;;;;4937557;28;20045;-78
2024/01/25 06:41:23;;;;;;;19.48;3.15;;;8.20;99.90;;;;;;4987619;28;20285;-75
2024/01/25 06:43:48;;;;;;;17.73;3.72;;;8.20;99.90;;;;;;5005118;28;20121;-76
2024/01/25 06:46:14;;;;;;;16.85;3.15;;;8.10;99.90;;;;;;5004258;28;20026;-75
2024/01/25 06:48:40;;;;;;;20.02;3.65;;;8.20;99.90;;;;;;5003833;28;20085;-74
2024/01/25 06:51:08;;;;;;;;;;;8.00;99.90;;;;;;5005599;28;20030;-75
2024/01/25 06:53:34;;;;;;;17.77;3.00;;;8.00;99.90;;;;;;5004058;28;19948;-76
2024/01/25 06:56:11;;;;;;;20.20;3.20;;;7.90;99.90;;;;;;5005228;28;20030;-75
2024/01/25 06:58:43;;;;;;;18.97;3.37;;;7.90;99.90;;;;;;5004917;28;20126;-76
2024/01/25 07:01:36;;;;;;;14.60;3.47;;;7.80;99.90;;;;;;4973128;28;20042;-76
2024/01/25 07:04:03;;;;;;;21.08;3.78;;;7.80;99.90;;;;;;4969471;28;20034;-77
2024/01/25 07:06:32;;;;;;;17.83;3.25;;;7.70;99.90;;;;;;4967601;28;20221;-75
2024/01/25 07:08:57;;;;;;;18.20;3.92;;;7.60;99.90;;;;;;4985518;28;20018;-75
2024/01/25 07:11:33;;;;;;;19.05;3.53;;;7.50;99.90;;;;;;4985323;28;20034;-76
2024/01/25 07:14:02;;;;;;;15.00;3.35;;;7.50;99.90;;;;;;4985469;28;20105;-76
2024/01/25 07:16:31;;;;;;;18.27;3.53;;;7.40;99.90;;;;;;4983277;28;20038;-76
2024/01/25 07:19:03;;;;;;;;;;;7.50;99.90;;;;;;4985687;28;20050;-77
2024/01/25 07:21:32;;;;;;;17.10;3.65;;;7.40;99.90;;;;;;4986015;28;19917;-75
2024/01/25 07:24:06;;;;;;;27.20;4.80;;;7.50;99.90;;;;;;4971494;28;20101;-75
2024/01/25 07:26:42;;;;;;;13.65;3.25;;;7.50;99.90;;;;;;4970899;28;20130;-76
2024/01/25 07:29:17;;;;;;;20.58;3.42;;;7.50;99.90;;;;;;4970967;28;20201;-76
2024/01/25 07:31:43;;;;;;;18.05;4.10;;;7.60;99.90;;;;;;4986687;28;20097;-77
2024/01/25 07:34:09;;;;;;;20.48;3.42;;;7.70;99.90;;;;;;4987451;28;20041;-76
2024/01/25 07:36:38;;;;;;;15.88;3.60;;;7.60;99.90;;;;;;4986822;28;20064;-75
2024/01/25 07:39:04;;;;;;;21.85;3.75;;;7.60;99.90;;;;;;4987266;28;20100;-74
2024/01/25 07:41:32;;;;;;;20.20;4.25;;;7.70;99.90;;;;;;5002890;28;20054;-77
2024/01/25 07:43:58;;;;;;;;;;;7.60;99.90;;;;;;5004716;28;20022;-76
2024/01/25 07:46:24;;;;;;;21.63;3.72;;;7.60;99.90;;;;;;4986588;28;19920;-75
2024/01/25 07:48:53;;;;;;;21.33;3.80;;;7.60;99.90;;;;;;4985900;28;20049;-76
2024/01/25 07:51:18;;;;;;;26.83;4.10;;;7.70;99.90;;;;;;5003309;28;20030;-76
2024/01/25 07:53:44;;;;;;;22.02;3.88;;;7.70;99.90;;;;;;5003797;28;20064;-77
2024/01/25 07:56:10;;;;;;;22.08;4.00;;;7.80;99.90;;;;;;4986986;28;20309;-76
2024/01/25 07:58:40;;;;;;;19.88;3.42;;;7.90;99.90;;;;;;5002863;28;20359;-76
2024/01/25 08:01:24;;;;;;;17.95;3.47;;;8.00;99.90;;;;;;4985972;28;20256;-77
2024/01/25 08:03:49;;;;;;;20.75;4.00;;;8.10;99.90;;;;;;4986597;28;20064;-77
2024/01/25 08:06:15;;;;;;;14.27;3.40;;;8.20;99.90;;;;;;4986729;28;20026;-78
2024/01/25 08:08:41;;;;;;;23.50;3.92;;;8.30;99.90;;;;;;4986109;28;20312;-77
2024/01/25 08:11:08;;;;;;;17.77;4.30;;;8.30;99.90;;;;;;4970265;28;20091;-76
2024/01/25 08:13:34;;;;;;;17.25;3.88;;;8.30;99.90;;;;;;4969835;28;20060;-81
2024/01/25 08:16:05;;;;;;;18.02;3.95;;;8.40;99.90;;;;;;4985305;28;20030;-77
2024/01/25 08:18:34;;;;;;;19.35;3.70;;;8.40;99.90;;;;;;5002854;28;20089;-74
2024/01/25 08:21:02;;;;;;;;;;;8.40;99.90;;;;;;5002402;28;20096;-73
2024/01/25 08:23:28;;;;;;;19.23;3.35;;;8.40;99.90;;;;;;5002966;28;19972;-76
2024/01/25 08:25:55;;;;;;;18.00;3.00;;;8.50;99.90;;;;;;4986467;28;20261;-73
2024/01/25 08:28:21;;;;;;;15.20;3.15;;;8.60;99.90;;;;;;5002226;28;20053;-73
2024/01/25 08:30:47;;;;;;;17.35;3.08;;;8.60;99.90;;;;;;5002513;28;20520;-74
2024/01/25 08:33:13;;;;;;;23.48;3.90;;;8.60;99.90;;;;;;5002998;28;20316;-75
2024/01/25 08:35:40;;;;;;;16.02;3.15;;;8.70;99.90;;;;;;5003026;28;20127;-73
2024/01/25 08:38:07;;;;;;;14.48;2.90;;;8.70;99.70;;;;;;5003177;28;20027;-74
2024/01/25 08:40:38;;;;;;;20.58;3.72;;;8.80;99.50;;;;;;5008571;28;20324;-73
2024/01/25 08:43:04;;;;;;;18.77;3.63;;;8.90;99.20;;;;;;4989071;28;20030;-74
2024/01/25 08:45:30;;;;;;;16.23;3.03;;;8.90;99.10;;;;;;5004703;28;20017;-73
2024/01/25 08:48:02;;;;;;;19.13;3.00;;;9.00;98.90;;;;;;5004885;28;20193;-75
2024/01/25 08:50:30;;;;;;;14.30;2.90;;;9.00;98.50;;;;;;5022720;28;20328;-79
2024/01/25 08:53:08;;;;;;;;;;;9.00;98.40;;;;;;5005560;28;20104;-78
2024/01/25 08:55:36;;;;;;;18.27;3.03;;;9.10;98.10;;;;;;5021279;28;19976;-75
2024/01/25 08:58:05;;;;;;;18.55;3.55;;;9.10;98.00;;;;;;5020040;28;20045;-78
2024/01/25 09:00:36;;;;;;;18.30;3.88;;;9.20;97.80;;;;;;5004166;28;20051;-76
2024/01/25 09:03:06;;;;;;;17.33;4.35;;;9.30;97.60;;;;;;5022303;28;20033;-75
2024/01/25 09:05:34;;;;;;;18.65;3.15;;;9.30;97.50;;;;;;5000544;28;20035;-73
2024/01/25 09:08:00;;;;;;;18.70;3.30;;;9.30;97.50;;;;;;5002758;28;20178;-72
2024/01/25 09:10:26;;;;;;;18.85;3.60;;;9.40;97.40;;;;;;5002462;28;20096;-73
2024/01/25 09:12:51;;;;;;;17.40;3.42;;;9.40;97.30;;;;;;5002361;28;20093;-73
2024/01/25 09:15:18;;;;;;;12.85;2.75;;;9.60;97.00;;;;;;5002695;28;20026;-72
2024/01/25 09:17:49;;;;;;;18.25;3.75;;;9.60;96.70;;;;;;5002413;28;20317;-72
2024/01/25 09:20:15;;;;;;;15.93;2.90;;;9.60;96.80;;;;;;5002321;28;20038;-72
2024/01/25 09:22:44;;;;;;;13.02;2.65;;;9.70;96.50;;;;;;5002188;28;20026;-75
2024/01/25 09:25:09;;;;;;;;;;;9.80;96.40;;;;;;5019918;28;20032;-71
2024/01/25 09:27:36;;;;;;;18.88;3.42;;;9.80;96.10;;;;;;5021569;28;19905;-73
2024/01/25 09:30:02;;;;;;;12.18;3.10;;;9.90;96.00;;;;;;5022223;28;20014;-71
2024/01/25 09:32:51;;;;;;;15.52;3.00;;;10.00;96.10;;;;;;5022453;28;20371;-71
2024/01/25 09:35:17;;;;;;;18.73;3.00;;;10.10;95.60;;;;;;5022299;28;20045;-73
2024/01/25 09:37:52;;;;;;;16.83;3.95;;;10.10;95.20;;;;;;5021790;28;20369;-78
2024/01/25 09:40:23;;;;;;;14.88;2.92;;;10.20;95.10;;;;;;5016299;28;20138;-76
2024/01/25 09:42:55;;;;;;;24.00;4.25;;;10.30;95.20;;;;;;5005918;28;20328;-71
2024/01/25 09:45:26;;;;;;;13.43;2.53;;;10.40;95.10;;;;;;5006260;28;20042;-72
2024/01/25 09:47:52;;;;;;;13.35;2.85;;;10.60;94.50;;;;;;5005525;28;20084;-71
2024/01/25 09:50:18;;;;;;;19.20;3.70;;;10.70;94.10;;;;;;5005828;28;20341;-71
2024/01/25 09:52:48;;;;;;;15.48;2.90;;;10.70;94.00;;;;;;5005340;28;20197;-71
2024/01/25 09:55:19;;;;;;;14.25;2.50;;;10.70;94.10;;;;;;5006179;28;20130;-72
2024/01/25 09:57:49;;;;;;;15.63;2.83;;;10.90;94.00;;;;;;4988189;28;20033;-76
2024/01/25 10:00:18;;;;;;;16.33;3.35;;;11.00;93.90;;;;;;5005111;28;20026;-75
2024/01/25 10:03:15;;;;;;;18.85;2.60;;;11.10;93.40;;;;;;5005462;28;20061;-76
2024/01/25 10:05:49;;;;;;;13.20;2.63;;;11.20;92.90;;;;;;5005893;28;20022;-77
2024/01/25 10:08:21;;;;;;;14.27;2.88;;;11.20;92.50;;;;;;4988314;28;20034;-80
2024/01/25 10:10:50;;;;;;;16.52;3.13;;;11.40;92.00;;;;;;5004968;28;20097;-77
2024/01/25 10:13:27;;;;;;;10.55;2.47;;;11.30;92.40;;;;;;4989657;28;20034;-75
2024/01/25 10:15:59;;;;;;;17.20;3.40;;;11.60;91.90;;;;;;4971876;28;20029;-76
2024/01/25 10:18:32;;;;;;;14.25;3.05;;;11.60;91.90;;;;;;5004564;28;20073;-75
2024/01/25 10:21:04;;;;;;;16.20;3.13;;;11.70;91.80;;;;;;4988642;28;20069;-74
2024/01/25 10:23:41;;;;;;;12.10;2.60;;;11.60;91.90;;;;;;5004077;28;20042;-74
2024/01/25 10:26:13;;;;;;;17.33;3.42;;;11.70;91.80;;;;;;5005522;28;20085;-73
2024/01/25 10:28:44;;;;;;;14.57;2.70;;;11.80;91.40;;;;;;4987711;28;20041;-72
2024/01/25 10:31:15;;;;;;;19.50;2.83;;;11.80;91.30;;;;;;5005641;28;20252;-74
2024/01/25 10:33:55;;;;;;;15.70;3.08;;;11.70;91.40;;;;;;5003779;28;20046;-72
2024/01/25 10:36:32;;;;;;;9.65;2.42;;;11.60;91.60;;;;;;4987407;28;20033;-72
2024/01/25 10:39:12;;;;;;;22.88;3.42;;;11.60;91.80;;;;;;4985631;28;20133;-73
2024/01/25 10:42:00;;;;;;;14.00;2.53;;;11.70;91.50;;;;;;4985030;28;20038;-73
2024/01/25 10:44:38;;;;;;;17.85;3.20;;;12.00;91.00;;;;;;4985717;28;20045;-74
2024/01/25 10:47:17;;;;;;;12.63;2.65;;;12.30;90.50;;;;;;4967480;28;20277;-72
2024/01/25 10:49:46;;;;;;;;;;;12.30;90.40;;;;;;5003279;28;20093;-71
2024/01/25 10:52:16;;;;;;;15.50;2.80;;;12.10;90.60;;;;;;4986642;28;20132;-74
2024/01/25 10:54:53;;;;;;;16.67;3.17;;;12.30;90.70;;;;;;5003504;28;20034;-73
2024/01/25 10:57:48;;;;;;;14.68;3.40;;;12.40;90.80;;;;;;5002955;28;20220;-71
2024/01/25 11:00:17;;;;;;;13.02;2.47;;;12.90;90.20;;;;;;5004893;28;20026;-73
2024/01/25 11:03:06;;;;;;;18.27;2.88;;;13.20;89.50;;;;;;4987486;28;20061;-73
2024/01/25 11:05:34;;;;;;;12.65;2.38;;;13.20;89.20;;;;;;5004444;28;20224;-72
2024/01/25 11:08:16;;;;;;;14.80;2.97;;;13.30;89.70;;;;;;5004670;28;20233;-72
2024/01/25 11:10:48;;;;;;;15.32;3.08;;;13.60;88.70;;;;;;5003929;28;20102;-71
2024/01/25 11:13:32;;;;;;;13.68;2.78;;;13.80;88.20;;;;;;5004313;28;20253;-73
2024/01/25 11:16:29;;;;;;;13.98;2.33;;;14.30;86.80;;;;;;5004629;28;20026;-73
2024/01/25 11:19:05;;;;;;;13.88;2.40;;;14.00;86.10;;;;;;4970134;28;20097;-73
2024/01/25 11:21:51;;;;;;;13.75;2.35;;;13.60;88.20;;;;;;4987641;28;20108;-73
2024/01/25 11:24:26;;;;;;;10.02;2.67;;;13.70;88.80;;;;;;5004573;28;20030;-74
2024/01/25 11:26:54;;;;;;;10.13;2.78;;;14.20;87.80;;;;;;5004265;28;20098;-72
2024/01/25 11:29:46;;;;;;;11.43;2.40;;;14.20;87.10;;;;;;5004190;28;20034;-74
2024/01/25 11:32:12;;;;;;;12.73;2.75;;;13.90;86.70;;;;;;4949146;28;20173;-74
2024/01/25 11:34:38;;;;;;;11.68;2.28;;;13.80;86.80;;;;;;5003721;28;20050;-72
2024/01/25 11:37:04;;;;;;;14.27;2.75;;;14.20;87.30;;;;;;5004421;28;20022;-72
2024/01/25 11:39:45;;;;;;;11.52;2.47;;;15.00;85.20;;;;;;5004382;28;20030;-75
2024/01/25 11:42:20;;;;;;;9.65;2.05;;;15.90;83.30;;;;;;4985672;28;20093;-71
2024/01/25 11:44:49;;;;;;;12.95;2.58;;;16.50;80.30;;;;;;5002204;28;20022;-72
2024/01/25 11:47:21;;;;;;;12.10;2.72;;;16.90;78.80;;;;;;5003754;28;20269;-72
2024/01/25 11:49:46;;;;;;;11.25;2.85;;;17.30;77.60;;;;;;5002306;28;20041;-75
2024/01/25 11:52:13;;;;;;;9.73;2.30;;;18.00;76.20;;;;;;5003876;28;20033;-73
2024/01/25 11:54:42;;;;;;;9.85;2.47;;;17.70;74.50;;;;;;5003749;28;20026;-74
2024/01/25 11:57:42;;;;;;;8.27;1.92;;;17.60;75.50;;;;;;5003773;28;20026;-73
2024/01/25 12:00:23;;;;;;;12.82;1.90;;;18.00;74.00;;;;;;4970500;28;20030;-75
2024/01/25 12:02:51;;;;;;;9.25;2.65;;;17.60;73.60;;;;;;5002835;28;20292;-74
2024/01/25 12:05:20;;;;;;;5.88;2.00;;;18.10;73.50;;;;;;5003324;28;20022;-74
2024/01/25 12:07:46;;;;;;;9.32;2.03;;;18.30;71.80;;;;;;4982172;28;20126;-75
2024/01/25 12:10:27;;;;;;;10.35;2.20;;;18.20;71.50;;;;;;4998654;28;20081;-77
2024/01/25 12:13:13;;;;;;;8.50;1.88;;;17.80;73.40;;;;;;5003027;28;20037;-74
2024/01/25 12:15:41;;;;;;;10.13;2.15;;;18.00;72.00;;;;;;5002603;28;20026;-72
2024/01/25 12:18:08;;;;;;;12.15;2.58;;;17.80;72.40;;;;;;4993007;28;20042;-72
2024/01/25 12:20:35;;;;;;;11.75;2.15;;;17.50;72.90;;;;;;5002857;28;20037;-73
2024/01/25 12:23:01;;;;;;;13.30;2.08;;;17.70;72.90;;;;;;5003444;28;20077;-75
2024/01/25 12:25:41;;;;;;;9.38;2.13;;;18.30;72.00;;;;;;5003354;28;20038;-74
2024/01/25 12:28:10;;;;;;;9.32;2.10;;;17.90;72.70;;;;;;5003952;28;20022;-75
2024/01/25 12:30:39;;;;;;;11.40;2.22;;;17.10;75.00;;;;;;5002987;28;20038;-74
2024/01/25 12:33:08;;;;;;;12.50;2.28;;;16.50;75.60;;;;;;5006248;28;20304;-73
2024/01/25 12:35:42;;;;;;;10.57;2.13;;;16.10;76.60;;;;;;5001916;28;20022;-75
2024/01/25 12:38:24;;;;;;;12.05;2.10;;;15.60;77.90;;;;;;5003171;28;20328;-76
2024/01/25 12:40:50;;;;;;;7.97;1.88;;;15.60;78.90;;;;;;5002442;28;20057;-77
2024/01/25 12:43:21;;;;;;;13.35;2.70;;;15.60;78.80;;;;;;5003120;28;20026;-74
2024/01/25 12:45:56;;;;;;;6.68;1.70;;;15.60;79.50;;;;;;4985218;28;20022;-75
2024/01/25 12:48:25;;;;;;;11.80;2.00;;;16.80;76.60;;;;;;4985670;28;20014;-75
2024/01/25 12:50:51;;;;;;;11.40;2.25;;;18.40;74.50;;;;;;4984933;28;20038;-76
2024/01/25 12:53:25;;;;;;;8.57;2.28;;;19.90;70.00;;;;;;4983607;28;20094;-76
2024/01/25 12:55:50;;;;;;;7.72;1.80;;;21.00;66.20;;;;;;5002411;28;20057;-72
2024/01/25 12:58:16;;;;;;;5.22;2.05;;;20.90;64.80;;;;;;5002838;28;20103;-74
2024/01/25 13:00:45;;;;;;;10.48;2.45;;;21.30;65.20;;;;;;5002737;28;20252;-71
2024/01/25 13:03:11;;;;;;;8.90;2.60;;;21.20;64.00;;;;;;5002580;28;20046;-72
2024/01/25 13:05:45;;;;;;;7.40;2.28;;;21.30;64.20;;;;;;5002366;28;20200;-73